createdAt,value
2023-03-20T00:00:31.275Z,-10971.72
2023-03-20T00:03:37.756Z,-10948.06
2023-03-20T00:06:45.699Z,-10943.84
2023-03-20T00:09:52.080Z,-10942.72
2023-03-20T00:12:58.644Z,-10944.25
2023-03-20T00:16:07.000Z,-10960.94
2023-03-20T00:19:17.673Z,-10959.81
2023-03-20T00:22:25.653Z,-10962.19
2023-03-20T00:25:32.783Z,-10952.25
2023-03-20T00:28:41.232Z,-10949.44
2023-03-20T00:31:47.879Z,-10953.09
2023-03-20T00:34:54.497Z,-10949.88
2023-03-20T00:38:02.066Z,-10958.69
2023-03-20T00:41:23.093Z,-10950.72
2023-03-20T00:44:34.828Z,-10963.88
2023-03-20T00:47:42.108Z,-10959.25
2023-03-20T00:50:49.645Z,-10966.25
2023-03-20T00:53:57.430Z,-10953.09
2023-03-20T00:57:07.823Z,-10943.28
2023-03-20T01:00:34.474Z,-10941.75
2023-03-20T01:03:40.885Z,-10939.50
2023-03-20T01:06:47.718Z,-10943.56
2023-03-20T01:09:55.601Z,-10943.56
2023-03-20T01:13:03.294Z,-10934.03
2023-03-20T01:16:21.291Z,-10926.75
2023-03-20T01:19:27.725Z,-10927.59
2023-03-20T01:22:34.099Z,-10925.63
2023-03-20T01:25:42.116Z,-10922.97
2023-03-20T01:28:48.738Z,-10934.59
2023-03-20T01:31:55.494Z,-10925.63
2023-03-20T01:35:01.413Z,-10919.34
2023-03-20T01:38:13.210Z,-10928.28
2023-03-20T01:41:21.668Z,-10924.94
2023-03-20T01:44:32.212Z,-10921.28
2023-03-20T01:47:38.749Z,-10932.22
2023-03-20T01:50:45.432Z,-10936.56
2023-03-20T01:53:55.894Z,-10945.53
2023-03-20T01:57:09.336Z,-10951.97
2023-03-20T02:00:17.184Z,-10948.59
2023-03-20T02:03:23.461Z,-10930.13
2023-03-20T02:06:29.825Z,-10929.41
2023-03-20T02:09:36.305Z,-10927.59
2023-03-20T02:12:44.661Z,-10925.63
2023-03-20T02:16:00.688Z,-10932.09
2023-03-20T02:19:11.723Z,-10930.13
2023-03-20T02:22:51.255Z,-10919.75
2023-03-20T02:26:20.324Z,-10916.13
2023-03-20T02:29:51.977Z,-10918.50
2023-03-20T02:33:34.630Z,-10920.59
2023-03-20T02:37:03.937Z,-10914.44
2023-03-20T02:40:22.734Z,-10923.69
2023-03-20T02:43:38.082Z,-10911.91
2023-03-20T02:46:54.071Z,-10929.56
2023-03-20T02:50:09.875Z,-10920.31
2023-03-20T02:53:26.284Z,-10930.13
2023-03-20T02:56:38.962Z,-10930.53
2023-03-20T02:59:52.036Z,-10937.53
2023-03-20T03:03:04.048Z,-10935.72
2023-03-20T03:06:14.500Z,-10936.84
2023-03-20T03:09:24.459Z,-10928.56
2023-03-20T03:12:37.906Z,-10923.13
2023-03-20T03:15:47.514Z,-10908.69
2023-03-20T03:19:05.234Z,-10916.97
2023-03-20T03:22:12.378Z,-10904.78
2023-03-20T03:25:19.179Z,-10925.50
2023-03-20T03:28:37.194Z,-10917.25
2023-03-20T03:31:44.550Z,-10910.78
2023-03-20T03:34:51.030Z,-10916.41
2023-03-20T03:38:01.774Z,-10915.56
2023-03-20T03:41:20.800Z,-10901.56
2023-03-20T03:44:33.125Z,-10905.75
2023-03-20T03:47:42.976Z,-10910.22
2023-03-20T03:50:54.536Z,-10902.53
2023-03-20T03:54:05.323Z,-10905.47
2023-03-20T03:57:14.309Z,-10907.44
2023-03-20T04:00:25.572Z,-10905.19
2023-03-20T04:03:37.800Z,-10911.06
2023-03-20T04:06:44.415Z,-10904.63
2023-03-20T04:09:50.791Z,-10912.06
2023-03-20T04:12:57.596Z,-10909.13
2023-03-20T04:16:05.884Z,-10910.22
2023-03-20T04:19:12.590Z,-10919.63
2023-03-20T04:22:18.868Z,-10902.53
2023-03-20T04:25:27.643Z,-10888.13
2023-03-20T04:28:34.286Z,-10899.59
2023-03-20T04:31:42.510Z,-10891.63
2023-03-20T04:34:49.059Z,-10895.13
2023-03-20T04:37:55.679Z,-10924.50
2023-03-20T04:41:01.944Z,-10923.53
2023-03-20T04:44:08.192Z,-10932.78
2023-03-20T04:47:15.987Z,-10927.47
2023-03-20T04:50:22.452Z,-10930.97
2023-03-20T04:53:28.538Z,-10929.28
2023-03-20T04:56:34.486Z,-10928.72
2023-03-20T04:59:40.734Z,-10917.38
2023-03-20T05:02:48.322Z,-10900.16
2023-03-20T05:05:54.881Z,-10906.72
2023-03-20T05:09:01.869Z,-10908.56
2023-03-20T05:12:09.207Z,-10922.84
2023-03-20T05:15:15.384Z,-10941.88
2023-03-20T05:18:22.764Z,-10938.38
2023-03-20T05:21:28.932Z,-10937.41
2023-03-20T05:24:35.208Z,-10933.63
2023-03-20T05:27:41.805Z,-10947.22
2023-03-20T05:30:48.194Z,-10946.22
2023-03-20T05:33:55.746Z,-10946.66
2023-03-20T05:37:01.900Z,-10952.25
2023-03-20T05:40:09.842Z,-10949.44
2023-03-20T05:43:16.277Z,-10963.47
2023-03-20T05:46:22.982Z,-10959.25
2023-03-20T05:49:30.919Z,-10965.41
2023-03-20T05:52:37.167Z,-10970.19
2023-03-20T05:55:44.809Z,-10972.84
2023-03-20T05:58:52.184Z,-10974.66
2023-03-20T06:01:58.584Z,-10970.31
2023-03-20T06:05:06.809Z,-10969.34
2023-03-20T06:08:13.154Z,-10978.31
2023-03-20T06:11:19.660Z,-10992.75
2023-03-20T06:14:25.675Z,-10999.63
2023-03-20T06:17:31.795Z,-11014.19
2023-03-20T06:20:39.478Z,-11021.78
2023-03-20T06:23:45.906Z,-11031.59
2023-03-20T06:26:52.317Z,-11021.50
2023-03-20T06:29:58.530Z,-11045.06
2023-03-20T06:33:05.127Z,-11045.34
2023-03-20T06:36:13.190Z,-11048.16
2023-03-20T06:39:19.859Z,-11050.81
2023-03-20T06:42:26.450Z,-11069.19
2023-03-20T06:45:33.286Z,-11072.56
2023-03-20T06:48:39.621Z,-11080.28
2023-03-20T06:51:48.009Z,-11088.56
2023-03-20T06:54:54.397Z,-11079.16
2023-03-20T06:58:00.777Z,-11082.94
2023-03-20T07:01:11.110Z,-11088.00
2023-03-20T07:04:17.653Z,-11084.06
2023-03-20T07:07:25.531Z,-11091.25
2023-03-20T07:10:32.227Z,-11095.72
2023-03-20T07:13:39.286Z,-11111.31
2023-03-20T07:16:45.772Z,-11119.59
2023-03-20T07:19:51.984Z,-11113.16
2023-03-20T07:23:00.025Z,-11118.06
2023-03-20T07:26:06.879Z,-11132.09
2023-03-20T07:29:14.039Z,-11141.81
2023-03-20T07:32:20.961Z,-11145.47
2023-03-20T07:35:27.460Z,-11143.22
2023-03-20T07:38:34.911Z,-11152.34
2023-03-20T07:41:41.709Z,-11148.13
2023-03-20T07:44:48.199Z,-11160.06
2023-03-20T07:47:54.598Z,-11179.75
2023-03-20T07:51:00.823Z,-11175.81
2023-03-20T07:54:08.328Z,-11184.66
2023-03-20T07:57:14.651Z,-11169.91
2023-03-20T08:00:21.623Z,-11170.91
2023-03-20T08:03:27.945Z,-11193.53
2023-03-20T08:06:34.827Z,-11196.19
2023-03-20T08:09:42.795Z,-11209.56
2023-03-20T08:12:49.360Z,-11203.22
2023-03-20T08:15:55.572Z,-11200.13
2023-03-20T08:19:03.404Z,-11213.06
2023-03-20T08:22:09.798Z,-11214.47
2023-03-20T08:25:17.480Z,-11227.28
2023-03-20T08:28:40.018Z,-11229.09
2023-03-20T08:31:50.904Z,-11231.06
2023-03-20T08:34:57.290Z,-11244.03
2023-03-20T08:38:04.354Z,-11243.03
2023-03-20T08:41:12.028Z,-11235.03
2023-03-20T08:44:18.272Z,-11254.00
2023-03-20T08:47:24.477Z,-11274.69
2023-03-20T08:50:31.720Z,-11269.22
2023-03-20T08:53:38.258Z,-11268.78
2023-03-20T08:56:46.233Z,-11255.28
2023-03-20T08:59:52.534Z,-11279.47
2023-03-20T09:02:59.080Z,-11286.66
2023-03-20T09:06:07.757Z,-11305.81
2023-03-20T09:09:16.000Z,-11298.50
2023-03-20T09:12:24.193Z,-11303.97
2023-03-20T09:15:30.585Z,-11307.63
2023-03-20T09:18:37.061Z,-11315.53
2023-03-20T09:21:43.149Z,-11330.16
2023-03-20T09:24:49.719Z,-11319.03
2023-03-20T09:27:57.504Z,-11343.13
2023-03-20T09:31:04.018Z,-11344.09
2023-03-20T09:34:10.527Z,-11341.72
2023-03-20T09:37:16.569Z,-11340.59
2023-03-20T09:40:28.341Z,-11345.38
2023-03-20T09:43:52.741Z,-11337.91
2023-03-20T09:47:20.238Z,-11344.81
2023-03-20T09:50:33.472Z,-11351.00
2023-03-20T09:53:43.349Z,-11375.25
2023-03-20T09:56:51.365Z,-11379.19
2023-03-20T10:00:03.062Z,-11394.69
2023-03-20T10:03:18.734Z,-11403.72
2023-03-20T10:06:25.570Z,-11382.84
2023-03-20T10:09:32.023Z,-11392.00
2023-03-20T10:12:50.888Z,-11404.56
2023-03-20T10:16:04.421Z,-11413.28
2023-03-20T10:19:22.603Z,-11410.75
2023-03-20T10:22:34.194Z,-11427.81
2023-03-20T10:25:44.302Z,-11408.22
2023-03-20T10:28:55.877Z,-11419.50
2023-03-20T10:32:12.597Z,-11437.53
2023-03-20T10:35:25.222Z,-11452.19
2023-03-20T10:38:41.291Z,-11419.78
2023-03-20T10:41:54.450Z,-11428.66
2023-03-20T10:45:07.394Z,-11452.91
2023-03-20T10:48:21.602Z,-11457.84
2023-03-20T10:51:47.317Z,-11450.38
2023-03-20T10:54:57.954Z,-11441.34
2023-03-20T10:58:14.808Z,-11450.22
2023-03-20T11:01:21.477Z,-11467.00
2023-03-20T11:04:29.559Z,-11460.38
2023-03-20T11:07:38.754Z,-11446.00
2023-03-20T11:10:46.404Z,-11477.31
2023-03-20T11:13:52.795Z,-11474.75
2023-03-20T11:17:04.017Z,-11480.69
2023-03-20T11:20:15.588Z,-11472.66
2023-03-20T11:23:26.908Z,-11493.25
2023-03-20T11:26:37.466Z,-11485.75
2023-03-20T11:29:47.244Z,-11488.88
2023-03-20T11:32:57.080Z,-11465.88
2023-03-20T11:36:13.143Z,-11499.16
2023-03-20T11:39:25.191Z,-11482.09
2023-03-20T11:42:32.329Z,-11479.00
2023-03-20T11:45:41.196Z,-11498.75
2023-03-20T11:48:47.957Z,-11500.72
2023-03-20T11:51:57.448Z,-11495.22
2023-03-20T11:55:08.252Z,-11514.13
2023-03-20T11:58:18.296Z,-11520.75
2023-03-20T12:01:24.731Z,-11499.59
2023-03-20T12:04:34.063Z,-11516.50
2023-03-20T12:07:41.537Z,-11516.22
2023-03-20T12:10:55.487Z,-11521.03
2023-03-20T12:14:04.777Z,-11524.13
2023-03-20T12:17:35.372Z,-11507.50
2023-03-20T12:20:46.621Z,-11512.00
2023-03-20T12:23:58.358Z,-11532.19
2023-03-20T12:27:25.352Z,-11518.06
2023-03-20T12:30:45.525Z,-11522.44
2023-03-20T12:33:56.499Z,-11516.50
2023-03-20T12:37:04.366Z,-11517.94
2023-03-20T12:40:17.516Z,-11523.28
2023-03-20T12:43:27.321Z,-11505.78
2023-03-20T12:46:44.559Z,-11515.94
2023-03-20T12:49:58.608Z,-11510.44
2023-03-20T12:53:27.215Z,-11525.53
2023-03-20T12:56:53.797Z,-11518.50
2023-03-20T13:00:12.896Z,-11537.53
2023-03-20T13:03:33.390Z,-11540.63
2023-03-20T13:06:50.593Z,-11546.16
2023-03-20T13:10:13.871Z,-11543.75
2023-03-20T13:13:31.297Z,-11547.28
2023-03-20T13:16:49.467Z,-11524.00
2023-03-20T13:20:14.375Z,-11529.06
2023-03-20T13:23:25.605Z,-11524.28
2023-03-20T13:26:39.255Z,-11543.47
2023-03-20T13:29:53.982Z,-11536.56
2023-03-20T13:33:10.916Z,-11528.94
2023-03-20T13:36:31.754Z,-11537.69
2023-03-20T13:39:44.295Z,-11523.00
2023-03-20T13:42:55.894Z,-11519.19
2023-03-20T13:46:08.926Z,-11540.22
2023-03-20T13:49:22.900Z,-11525.25
2023-03-20T13:52:33.484Z,-11515.09
2023-03-20T13:55:47.131Z,-11535.84
2023-03-20T13:59:03.854Z,-11563.91
2023-03-20T14:02:25.188Z,-11541.63
2023-03-20T14:05:37.891Z,-11557.56
2023-03-20T14:08:50.825Z,-11538.25
2023-03-20T14:12:00.028Z,-11530.34
2023-03-20T14:15:06.708Z,-11528.50
2023-03-20T14:18:19.283Z,-11544.31
2023-03-20T14:21:25.791Z,-11516.66
2023-03-20T14:24:37.956Z,-11543.47
2023-03-20T14:27:57.162Z,-11543.19
2023-03-20T14:31:15.195Z,-11521.59
2023-03-20T14:34:24.844Z,-11547.97
2023-03-20T14:37:39.842Z,-11550.94
2023-03-20T14:40:54.158Z,-11526.94
2023-03-20T14:44:16.011Z,-11529.50
2023-03-20T14:47:31.810Z,-11525.25
2023-03-20T14:50:42.849Z,-11529.78
2023-03-20T14:53:56.935Z,-11510.88
2023-03-20T14:57:11.484Z,-11499.88
2023-03-20T15:00:20.876Z,-11490.84
2023-03-20T15:03:27.302Z,-11490.13
2023-03-20T15:06:36.937Z,-11482.53
2023-03-20T15:09:45.441Z,-11474.19
2023-03-20T15:12:53.301Z,-11473.06
2023-03-20T15:16:04.077Z,-11465.16
2023-03-20T15:19:19.261Z,-11462.06
2023-03-20T15:22:26.931Z,-11449.94
2023-03-20T15:25:39.857Z,-11444.59
2023-03-20T15:28:47.649Z,-11433.88
2023-03-20T15:32:12.861Z,-11436.28
2023-03-20T15:35:23.410Z,-11449.38
2023-03-20T15:38:35.512Z,-11447.13
2023-03-20T15:41:45.641Z,-11448.53
2023-03-20T15:44:55.046Z,-11440.34
2023-03-20T15:48:02.766Z,-11432.03
2023-03-20T15:51:12.221Z,-11427.25
2023-03-20T15:54:21.112Z,-11413.56
2023-03-20T15:57:34.951Z,-11423.44
2023-03-20T16:00:46.791Z,-11408.50
2023-03-20T16:03:54.547Z,-11397.94
2023-03-20T16:07:01.828Z,-11392.16
2023-03-20T16:10:18.949Z,-11390.19
2023-03-20T16:13:25.853Z,-11386.50
2023-03-20T16:16:37.608Z,-11383.00
2023-03-20T16:19:44.321Z,-11377.06
2023-03-20T16:22:52.444Z,-11368.75
2023-03-20T16:26:01.297Z,-11363.25
2023-03-20T16:29:08.290Z,-11345.94
2023-03-20T16:32:26.907Z,-11352.97
2023-03-20T16:35:39.569Z,-11349.75
2023-03-20T16:38:57.267Z,-11337.91
2023-03-20T16:42:20.512Z,-11336.66
2023-03-20T16:45:30.459Z,-11330.16
2023-03-20T16:48:39.359Z,-11328.47
2023-03-20T16:51:46.078Z,-11324.94
2023-03-20T16:54:52.385Z,-11342.28
2023-03-20T16:58:02.340Z,-11347.78
2023-03-20T17:01:10.797Z,-11343.41
2023-03-20T17:04:21.824Z,-11333.84
2023-03-20T17:07:30.788Z,-11339.47
2023-03-20T17:10:39.814Z,-11326.50
2023-03-20T17:13:48.795Z,-11324.25
2023-03-20T17:16:56.814Z,-11333.97
2023-03-20T17:20:03.105Z,-11307.50
2023-03-20T17:23:14.865Z,-11303.56
2023-03-20T17:26:21.212Z,-11306.94
2023-03-20T17:29:28.785Z,-11318.75
2023-03-20T17:32:35.354Z,-11331.00
2023-03-20T17:35:42.081Z,-11313.97
2023-03-20T17:38:48.268Z,-11305.09
2023-03-20T17:41:54.656Z,-11299.19
2023-03-20T17:45:04.389Z,-11307.34
2023-03-20T17:48:16.717Z,-11314.69
2023-03-20T17:51:23.140Z,-11305.09
2023-03-20T17:54:29.387Z,-11294.97
2023-03-20T17:57:37.405Z,-11295.25
2023-03-20T18:00:45.502Z,-11285.97
2023-03-20T18:03:52.279Z,-11276.94
2023-03-20T18:06:58.536Z,-11272.16
2023-03-20T18:10:05.234Z,-11267.25
2023-03-20T18:13:11.416Z,-11259.78
2023-03-20T18:16:21.619Z,-11256.25
2023-03-20T18:19:30.130Z,-11263.72
2023-03-20T18:22:36.459Z,-11263.88
2023-03-20T18:25:43.250Z,-11271.88
2023-03-20T18:28:51.255Z,-11266.25
2023-03-20T18:31:59.054Z,-11257.94
2023-03-20T18:35:06.139Z,-11256.41
2023-03-20T18:38:14.277Z,-11255.28
2023-03-20T18:41:21.112Z,-11250.22
2023-03-20T18:44:27.270Z,-11257.66
2023-03-20T18:47:34.896Z,-11251.06
2023-03-20T18:50:43.222Z,-11257.66
2023-03-20T18:53:49.824Z,-11257.25
2023-03-20T18:56:59.969Z,-11252.31
2023-03-20T19:00:18.516Z,-11260.91
2023-03-20T19:03:28.645Z,-11270.75
2023-03-20T19:06:35.091Z,-11266.53
2023-03-20T19:09:41.652Z,-11266.81
2023-03-20T19:12:47.711Z,-11264.84
2023-03-20T19:15:53.787Z,-11269.78
2023-03-20T19:19:03.246Z,-11257.53
2023-03-20T19:22:22.424Z,-11266.69
2023-03-20T19:25:39.229Z,-11258.09
2023-03-20T19:28:49.098Z,-11248.53
2023-03-20T19:31:57.097Z,-11241.19
2023-03-20T19:38:35.468Z,-11229.94
2023-03-20T19:41:41.952Z,-11224.19
2023-03-20T19:44:48.157Z,-11219.53
2023-03-20T19:47:54.788Z,-11216.88
2023-03-20T19:51:04.573Z,-11208.56
2023-03-20T19:54:10.868Z,-11206.31
2023-03-20T19:57:17.105Z,-11204.78
2023-03-20T20:03:50.995Z,-11199.56
2023-03-20T20:07:26.685Z,-11193.94
2023-03-20T20:10:26.438Z,-11194.78
2023-03-20T20:13:47.029Z,-11194.22
2023-03-20T20:17:01.291Z,-11191.69
2023-03-20T20:20:09.637Z,-11187.47
2023-03-20T20:23:19.973Z,-11185.94
2023-03-20T20:26:30.907Z,-11180.72
2023-03-20T20:29:38.098Z,-11177.63
2023-03-20T20:32:44.885Z,-11177.78
2023-03-20T20:36:27.877Z,-11178.63
2023-03-20T20:39:21.276Z,-11174.53
2023-03-20T20:42:27.712Z,-11170.63
2023-03-20T20:45:35.172Z,-11169.50
2023-03-20T20:48:43.165Z,-11171.19
2023-03-20T20:51:50.147Z,-11171.47
2023-03-20T20:55:00.988Z,-11170.34
2023-03-20T20:58:13.725Z,-11162.31
2023-03-20T21:01:20.008Z,-11162.75
2023-03-20T21:04:26.577Z,-11146.00
2023-03-20T21:07:32.828Z,-11151.22
2023-03-20T21:10:40.960Z,-11149.53
2023-03-20T21:13:47.166Z,-11150.78
2023-03-20T21:16:57.232Z,-11154.31
2023-03-20T21:20:03.211Z,-11160.22
2023-03-20T21:23:09.595Z,-11163.16
2023-03-20T21:26:17.695Z,-11167.38
2023-03-20T21:29:23.868Z,-11166.69
2023-03-20T21:32:32.388Z,-11168.22
2023-03-20T21:35:40.502Z,-11168.22
2023-03-20T21:39:06.915Z,-11171.75
2023-03-20T21:42:14.160Z,-11168.22
2023-03-20T21:46:13.768Z,-11170.34
2023-03-20T21:52:56.901Z,-11166.69
2023-03-20T21:56:41.936Z,-11169.50
2023-03-20T22:02:36.643Z,-11151.34
2023-03-20T22:09:52.213Z,-11148.69
2023-03-20T22:23:37.094Z,-11165.00
2023-03-20T22:31:01.588Z,-11148.25
2023-03-20T22:40:59.318Z,-11151.06
2023-03-20T22:47:04.454Z,-11149.25
2023-03-20T22:50:12.613Z,-11145.88
2023-03-20T22:53:19.514Z,-11147.13
2023-03-20T22:56:25.975Z,-11147.00
2023-03-20T22:59:31.879Z,-11144.19
2023-03-20T23:02:38.281Z,-11153.59
2023-03-20T23:05:46.101Z,-11159.38
2023-03-20T23:08:57.083Z,-11163.59
2023-03-20T23:12:04.699Z,-11164.44
2023-03-20T23:15:11.013Z,-11164.16
2023-03-20T23:18:17.042Z,-11164.72
2023-03-20T23:21:25.634Z,-11162.31
2023-03-20T23:24:31.728Z,-11161.06
2023-03-20T23:27:37.804Z,-11161.19
2023-03-20T23:30:49.762Z,-11159.94
2023-03-20T23:34:03.031Z,-11153.19
2023-03-20T23:37:10.904Z,-11149.81
2023-03-20T23:40:17.534Z,-11155.00
2023-03-20T23:43:24.239Z,-11155.28
2023-03-20T23:46:31.108Z,-11150.66
2023-03-20T23:49:37.613Z,-11147.13
2023-03-20T23:56:14.097Z,-11146.84
2023-03-20T23:59:21.973Z,-11154.31
